createdAt,value
2022-08-09T00:00:01.101Z,16.20
2022-08-09T00:04:36.537Z,16.20
2022-08-09T00:09:31.387Z,16.40
2022-08-09T00:14:39.268Z,16.40
2022-08-09T00:19:18.647Z,16.40
2022-08-09T00:24:05.061Z,16.30
2022-08-09T00:28:58.060Z,16.10
2022-08-09T00:33:52.256Z,16.20
2022-08-09T00:38:38.592Z,16.10
2022-08-09T00:44:28.554Z,16.00
2022-08-09T00:48:22.732Z,16.10
2022-08-09T00:53:15.749Z,16.00
2022-08-09T00:58:22.108Z,15.90
2022-08-09T01:03:01.211Z,15.80
2022-08-09T01:08:01.888Z,16.00
2022-08-09T01:12:43.649Z,15.70
2022-08-09T01:17:35.005Z,15.70
2022-08-09T01:22:26.379Z,15.70
2022-08-09T01:27:18.900Z,15.70
2022-08-09T01:32:46.476Z,15.50
2022-08-09T01:37:05.637Z,15.60
2022-08-09T01:42:11.468Z,15.40
2022-08-09T01:46:48.245Z,15.60
2022-08-09T01:51:52.952Z,15.50
2022-08-09T01:56:30.932Z,15.50
2022-08-09T02:02:00.981Z,15.40
2022-08-09T02:06:11.345Z,15.40
2022-08-09T02:11:02.816Z,15.30
2022-08-09T02:15:56.718Z,15.30
2022-08-09T02:20:46.906Z,15.30
2022-08-09T02:25:55.983Z,15.10
2022-08-09T02:30:27.073Z,15.20
2022-08-09T02:36:04.265Z,15.00
2022-08-09T02:40:11.121Z,14.90
2022-08-09T02:45:00.263Z,14.90
2022-08-09T02:50:02.539Z,14.90
2022-08-09T02:54:57.522Z,14.80
2022-08-09T02:59:37.225Z,14.80
2022-08-09T03:04:29.930Z,14.80
2022-08-09T03:09:18.058Z,14.60
2022-08-09T03:14:10.508Z,14.60
2022-08-09T03:19:02.299Z,14.60
2022-08-09T03:24:05.483Z,14.60
2022-08-09T03:28:43.907Z,14.60
2022-08-09T03:33:58.040Z,14.60
2022-08-09T03:38:30.759Z,14.50
2022-08-09T03:43:16.206Z,14.60
2022-08-09T03:48:06.004Z,14.60
2022-08-09T03:52:59.165Z,14.60
2022-08-09T03:58:21.010Z,14.60
2022-08-09T04:02:53.532Z,14.60
2022-08-09T04:07:57.991Z,14.60
2022-08-09T04:12:31.912Z,14.60
2022-08-09T04:17:13.064Z,14.70
2022-08-09T04:22:03.487Z,14.70
2022-08-09T04:26:54.466Z,14.70
2022-08-09T04:31:47.941Z,14.80
2022-08-09T04:36:36.864Z,14.90
2022-08-09T04:41:44.084Z,15.80
2022-08-09T04:47:06.030Z,17.00
2022-08-09T04:51:16.847Z,17.60
2022-08-09T04:56:05.889Z,18.00
2022-08-09T05:00:55.738Z,18.30
2022-08-09T05:06:07.604Z,17.90
2022-08-09T05:10:38.441Z,17.80
2022-08-09T05:15:52.180Z,17.30
2022-08-09T05:20:20.245Z,16.80
2022-08-09T05:25:11.233Z,16.50
2022-08-09T05:30:02.699Z,16.50
2022-08-09T05:34:53.499Z,16.60
2022-08-09T05:39:45.896Z,16.50
2022-08-09T05:44:39.499Z,16.60
2022-08-09T05:51:03.320Z,16.60
2022-08-09T05:54:19.666Z,16.90
2022-08-09T05:58:18.797Z,17.10
2022-08-09T06:03:20.272Z,17.20
2022-08-09T06:08:10.974Z,17.30
2022-08-09T06:13:20.428Z,17.70
2022-08-09T06:17:41.070Z,17.60
2022-08-09T06:22:30.045Z,18.00
2022-08-09T06:27:19.830Z,17.90
2022-08-09T06:33:41.990Z,17.80
2022-08-09T06:37:02.105Z,18.00
2022-08-09T06:42:11.752Z,18.20
2022-08-09T06:46:45.762Z,18.40
2022-08-09T06:51:41.058Z,18.30
2022-08-09T06:56:31.923Z,18.40
2022-08-09T07:01:35.820Z,18.60
2022-08-09T07:06:11.579Z,18.50
2022-08-09T07:10:59.662Z,18.60
2022-08-09T07:16:53.570Z,18.80
2022-08-09T07:20:44.756Z,19.10
2022-08-09T07:25:43.713Z,19.00
2022-08-09T07:30:33.157Z,19.10
2022-08-09T07:35:15.209Z,19.40
2022-08-09T07:40:08.257Z,19.50
2022-08-09T07:45:15.082Z,19.90
2022-08-09T07:50:09.880Z,19.90
2022-08-09T07:54:39.297Z,20.20
2022-08-09T08:00:04.149Z,20.30
2022-08-09T08:04:33.417Z,20.60
2022-08-09T08:09:54.873Z,20.70
2022-08-09T08:14:06.866Z,20.80
2022-08-09T08:18:54.473Z,20.90
2022-08-09T08:23:56.637Z,21.00
2022-08-09T08:28:37.063Z,21.00
2022-08-09T08:33:55.958Z,21.20
2022-08-09T08:38:18.941Z,21.30
2022-08-09T08:43:14.107Z,21.50
2022-08-09T08:48:01.051Z,21.60
2022-08-09T08:53:01.074Z,22.10
2022-08-09T08:57:58.600Z,22.20
2022-08-09T09:02:35.889Z,22.10
2022-08-09T09:07:25.271Z,22.30
2022-08-09T09:12:17.379Z,22.60
2022-08-09T09:17:16.801Z,22.90
2022-08-09T09:21:58.505Z,23.00
2022-08-09T09:26:50.184Z,23.00
2022-08-09T09:32:16.260Z,23.10
2022-08-09T09:36:33.414Z,23.30
2022-08-09T09:41:23.605Z,23.50
2022-08-09T09:46:52.665Z,23.50
2022-08-09T09:51:37.930Z,23.50
2022-08-09T09:56:05.778Z,23.80
2022-08-09T10:01:00.135Z,24.00
2022-08-09T10:06:05.591Z,24.00
2022-08-09T10:10:32.120Z,24.00
2022-08-09T10:17:07.217Z,24.20
2022-08-09T10:20:15.621Z,24.10
2022-08-09T10:25:14.775Z,24.40
2022-08-09T10:32:37.832Z,24.50
2022-08-09T10:34:47.445Z,24.80
2022-08-09T10:39:50.109Z,24.80
2022-08-09T10:44:27.422Z,24.90
2022-08-09T10:49:20.175Z,24.60
2022-08-09T10:54:13.423Z,24.80
2022-08-09T10:59:01.300Z,25.00
2022-08-09T11:04:02.042Z,25.40
2022-08-09T11:08:54.229Z,25.50
2022-08-09T11:13:55.060Z,25.70
2022-08-09T11:18:23.967Z,25.70
2022-08-09T11:23:29.885Z,25.60
2022-08-09T11:28:35.238Z,25.50
2022-08-09T11:32:59.377Z,25.60
2022-08-09T11:37:50.693Z,25.50
2022-08-09T11:42:39.163Z,25.60
2022-08-09T11:47:39.424Z,25.70
2022-08-09T11:54:03.444Z,26.00
2022-08-09T11:57:11.978Z,26.00
2022-08-09T12:02:40.697Z,26.00
2022-08-09T12:06:57.932Z,26.10
2022-08-09T12:12:04.384Z,26.10
2022-08-09T12:16:40.364Z,26.20
2022-08-09T12:21:51.330Z,26.20
2022-08-09T12:26:26.834Z,26.20
2022-08-09T12:32:02.823Z,26.00
2022-08-09T12:36:01.601Z,26.20
2022-08-09T12:40:52.334Z,26.70
2022-08-09T12:46:00.949Z,26.60
2022-08-09T12:50:35.127Z,26.50
2022-08-09T12:56:48.654Z,26.60
2022-08-09T13:00:16.141Z,26.50
2022-08-09T13:05:07.108Z,26.80
2022-08-09T13:10:02.802Z,27.20
2022-08-09T13:14:53.990Z,27.00
2022-08-09T13:19:18.961Z,27.00
2022-08-09T13:24:59.516Z,27.00
2022-08-09T13:29:02.133Z,26.90
2022-08-09T13:33:54.935Z,27.10
2022-08-09T13:39:08.404Z,27.20
2022-08-09T13:43:40.054Z,27.10
2022-08-09T13:48:30.408Z,27.10
2022-08-09T13:53:16.968Z,26.90
2022-08-09T13:58:12.202Z,27.10
2022-08-09T14:04:05.532Z,27.30
2022-08-09T14:07:50.590Z,27.30
2022-08-09T14:12:41.399Z,27.50
2022-08-09T14:18:32.311Z,27.30
2022-08-09T14:22:23.011Z,27.30
2022-08-09T14:27:21.125Z,27.30
2022-08-09T14:32:16.262Z,27.40
2022-08-09T14:36:56.025Z,27.20
2022-08-09T14:41:48.176Z,27.20
2022-08-09T14:51:42.774Z,27.20
2022-08-09T14:56:27.107Z,27.10
2022-08-09T15:01:13.284Z,27.20
2022-08-09T15:02:24.143Z,27.30
2022-08-09T15:07:36.454Z,27.30
2022-08-09T15:12:34.907Z,27.20
2022-08-09T15:17:26.324Z,27.30
2022-08-09T15:22:02.917Z,27.50
2022-08-09T15:25:07.165Z,27.60
2022-08-09T15:31:14.694Z,27.70
2022-08-09T15:34:50.005Z,27.70
2022-08-09T15:39:55.582Z,27.80
2022-08-09T15:44:33.930Z,27.80
2022-08-09T15:49:24.351Z,27.70
2022-08-09T15:54:48.814Z,27.90
2022-08-09T15:59:06.447Z,27.90
2022-08-09T16:03:58.575Z,27.70
2022-08-09T16:08:50.802Z,27.70
2022-08-09T16:14:08.407Z,27.80
2022-08-09T16:18:29.056Z,28.00
2022-08-09T16:23:21.969Z,25.50
2022-08-09T16:28:14.069Z,28.30
2022-08-09T16:33:01.903Z,30.30
2022-08-09T16:37:59.558Z,30.40
2022-08-09T16:42:46.197Z,31.10
2022-08-09T16:49:02.069Z,32.60
2022-08-09T16:52:27.771Z,32.80
2022-08-09T16:57:16.578Z,32.70
2022-08-09T17:02:10.152Z,32.80
2022-08-09T17:09:44.752Z,32.10
2022-08-09T17:11:53.140Z,32.00
2022-08-09T17:16:43.254Z,32.20
2022-08-09T17:21:33.818Z,32.90
2022-08-09T17:26:38.721Z,33.00
2022-08-09T17:31:16.474Z,32.40
2022-08-09T17:36:05.420Z,32.40
2022-08-09T17:40:57.437Z,32.10
2022-08-09T17:46:09.384Z,32.80
2022-08-09T17:50:38.572Z,32.50
2022-08-09T17:56:01.150Z,31.40
2022-08-09T18:00:48.476Z,31.00
2022-08-09T18:05:13.517Z,31.40
2022-08-09T18:10:05.839Z,31.30
2022-08-09T18:14:57.576Z,31.00
2022-08-09T18:21:23.891Z,30.60
2022-08-09T18:24:36.780Z,29.90
2022-08-09T18:30:50.152Z,28.50
2022-08-09T18:34:24.427Z,27.10
2022-08-09T18:39:17.602Z,25.80
2022-08-09T18:44:10.660Z,25.90
2022-08-09T18:48:51.148Z,25.10
2022-08-09T18:54:28.306Z,25.20
2022-08-09T18:58:33.636Z,24.90
2022-08-09T19:03:25.302Z,24.60
2022-08-09T19:08:20.298Z,24.30
2022-08-09T19:13:51.616Z,23.90
2022-08-09T19:18:01.046Z,23.90
2022-08-09T19:22:55.332Z,23.50
2022-08-09T19:27:40.452Z,23.50
2022-08-09T19:32:33.899Z,23.30
2022-08-09T19:37:23.980Z,23.20
2022-08-09T19:42:19.994Z,23.10
2022-08-09T19:47:04.311Z,23.00
2022-08-09T19:51:57.411Z,22.80
2022-08-09T19:56:46.625Z,22.60
2022-08-09T20:06:32.023Z,22.40
2022-08-09T20:11:26.922Z,22.10
2022-08-09T20:16:55.011Z,22.10
2022-08-09T20:21:02.456Z,22.00
2022-08-09T20:25:53.998Z,22.00
2022-08-09T20:30:43.393Z,21.80
2022-08-09T20:35:35.038Z,21.70
2022-08-09T20:40:28.403Z,21.50
2022-08-09T20:46:45.231Z,21.40
2022-08-09T20:50:15.647Z,21.30
2022-08-09T20:55:03.238Z,21.30
2022-08-09T21:00:32.442Z,21.20
2022-08-09T21:06:00.217Z,21.00
2022-08-09T21:09:58.701Z,20.90
2022-08-09T21:14:24.856Z,20.80
2022-08-09T21:20:26.828Z,20.60
2022-08-09T21:24:11.081Z,20.60
2022-08-09T21:28:57.556Z,20.50
2022-08-09T21:33:53.240Z,20.50
2022-08-09T21:38:39.335Z,20.40
2022-08-09T21:43:58.510Z,20.30
2022-08-09T21:48:20.797Z,20.20
2022-08-09T21:53:41.737Z,20.10
2022-08-09T21:58:03.553Z,20.10
2022-08-09T22:03:00.204Z,20.00
2022-08-09T22:07:54.571Z,20.00
2022-08-09T22:12:39.352Z,19.90
2022-08-09T22:17:32.320Z,19.80
2022-08-09T22:22:20.143Z,19.70
2022-08-09T22:27:10.396Z,19.60
2022-08-09T22:32:00.386Z,19.50
2022-08-09T22:36:52.923Z,19.50
2022-08-09T22:41:42.943Z,19.40
2022-08-09T22:48:37.125Z,19.30
2022-08-09T22:51:25.842Z,19.30
2022-08-09T22:56:34.870Z,19.20
2022-08-09T23:01:06.851Z,19.10
2022-08-09T23:05:57.818Z,19.00
2022-08-09T23:10:48.786Z,18.90
2022-08-09T23:15:39.921Z,18.80
2022-08-09T23:20:30.983Z,18.70
2022-08-09T23:25:21.623Z,18.60
2022-08-09T23:30:13.060Z,18.50
2022-08-09T23:35:03.844Z,18.50
2022-08-09T23:39:55.251Z,18.40
2022-08-09T23:44:46.324Z,18.30
2022-08-09T23:49:37.309Z,18.20
2022-08-09T23:54:28.709Z,18.10
2022-08-09T23:59:21.643Z,18.00
